Time;durP1;ratioP1;P1;durP2;ratioP2;P2;SDS_P1;SDS_P2;PMS_P1;PMS_P2;Temp;Humidity;BMP_temperature;BMP_pressure;BME280_temperature;BME280_humidity;BME280_pressure;Samples;Min_cycle;Max_cycle;Signal;HPM_P1;HPM_P2
2022/07/31 00:04:37;;;;;;;0.85;0.70;;;19.40;50.60;21.50;94292.00;;;;10473254;28;45547;-63
2022/07/31 00:09:58;;;;;;;0.98;0.70;;;19.40;50.40;21.50;94282.00;;;;10472671;28;45492;-63
2022/07/31 00:15:19;;;;;;;1.33;0.88;;;19.40;50.20;21.50;94292.00;;;;10472525;28;45113;-63
2022/07/31 00:20:43;;;;;;;0.90;0.60;;;19.40;50.10;21.50;94285.00;;;;10472937;28;45201;-63
2022/07/31 00:26:03;;;;;;;0.80;0.65;;;19.40;50.40;21.50;94287.00;;;;10483789;28;45090;-63
2022/07/31 00:31:24;;;;;;;1.20;0.75;;;19.40;50.00;21.50;94286.00;;;;10472349;28;45283;-62
2022/07/31 00:36:46;;;;;;;1.42;0.68;;;19.40;50.10;21.50;94281.00;;;;10470673;28;45162;-63
2022/07/31 00:42:16;;;;;;;1.15;0.50;;;19.30;50.60;21.50;94272.00;;;;10471635;28;45400;-63
2022/07/31 00:47:37;;;;;;;1.63;0.70;;;19.30;50.60;21.50;94278.00;;;;10471957;28;45216;-63
2022/07/31 00:52:59;;;;;;;0.80;0.60;;;19.40;50.50;21.50;94260.00;;;;10471759;28;45389;-63
2022/07/31 00:58:20;;;;;;;0.77;0.63;;;19.30;50.30;21.50;94260.00;;;;10468809;28;45207;-63
2022/07/31 01:03:40;;;;;;;1.17;0.65;;;19.30;50.00;21.50;94276.00;;;;10466670;28;45320;-63
2022/07/31 01:09:02;;;;;;;0.75;0.60;;;19.30;49.70;21.50;94257.00;;;;10471091;28;45176;-63
2022/07/31 01:14:28;;;;;;;0.95;0.60;;;19.30;49.60;21.50;94254.00;;;;10470547;28;45217;-63
2022/07/31 01:19:51;;;;;;;2.00;0.70;;;19.30;49.80;21.50;94265.00;;;;10484866;28;46198;-63
2022/07/31 01:25:27;;;;;;;0.93;0.60;;;19.30;49.60;21.50;94257.00;;;;10481959;28;45218;-63
2022/07/31 01:30:53;;;;;;;1.50;0.70;;;19.30;49.50;21.40;94269.00;;;;10471114;28;45164;-62
2022/07/31 01:36:20;;;;;;;1.77;0.80;;;19.30;49.50;21.40;94254.00;;;;10469907;28;45534;-63
2022/07/31 01:41:43;;;;;;;0.85;0.60;;;19.30;49.50;21.40;94251.00;;;;10470613;28;45218;-63
2022/07/31 01:47:06;;;;;;;0.63;0.60;;;19.30;49.40;21.40;94257.00;;;;10469813;28;45132;-63
2022/07/31 01:52:29;;;;;;;0.85;0.70;;;19.20;49.20;21.40;94264.00;;;;10470020;28;45497;-63
2022/07/31 01:57:50;;;;;;;1.20;0.60;;;19.30;49.50;21.40;94264.00;;;;10468797;28;45215;-63
2022/07/31 02:03:14;;;;;;;0.77;0.70;;;19.20;49.60;21.40;94251.00;;;;10456782;28;45304;-63
2022/07/31 02:08:35;;;;;;;1.00;0.50;;;19.30;49.40;21.40;94252.00;;;;10469245;28;45216;-63
2022/07/31 02:13:57;;;;;;;1.15;0.60;;;19.20;49.10;21.40;94258.00;;;;10468834;28;45413;-63
2022/07/31 02:19:21;;;;;;;1.08;0.70;;;19.20;49.20;21.40;94263.00;;;;10469131;28;45180;-63
2022/07/31 02:24:41;;;;;;;1.40;0.80;;;19.20;49.40;21.40;94256.00;;;;10480979;28;45303;-63
2022/07/31 02:30:04;;;;;;;3.35;0.70;;;19.20;49.10;21.40;94263.00;;;;10469739;28;45458;-63
2022/07/31 02:35:26;;;;;;;1.25;0.65;;;19.20;49.50;21.40;94264.00;;;;10467448;28;45227;-63
2022/07/31 02:40:48;;;;;;;2.00;0.50;;;19.20;49.90;21.40;94254.00;;;;10469045;28;45258;-63
2022/07/31 02:46:09;;;;;;;0.77;0.60;;;19.20;49.40;21.40;94269.00;;;;10467294;28;45204;-63
2022/07/31 02:51:32;;;;;;;0.98;0.50;;;19.20;49.80;21.40;94263.00;;;;10468514;28;45251;-63
2022/07/31 02:56:53;;;;;;;1.23;0.80;;;19.20;49.60;21.40;94258.00;;;;10466930;28;45236;-63
2022/07/31 03:02:14;;;;;;;0.60;0.60;;;19.20;49.70;21.40;94256.00;;;;10468472;28;45311;-63
2022/07/31 03:07:36;;;;;;;1.02;0.65;;;19.20;49.60;21.40;94263.00;;;;10474576;28;45254;-63
2022/07/31 03:12:58;;;;;;;0.70;0.50;;;19.20;49.80;21.40;94259.00;;;;10474909;28;45212;-63
2022/07/31 03:18:20;;;;;;;0.68;0.55;;;19.20;50.00;21.40;94256.00;;;;10475451;28;45466;-63
2022/07/31 03:23:42;;;;;;;0.98;0.70;;;19.20;49.80;21.40;94248.00;;;;10485531;28;45200;-63
2022/07/31 03:29:03;;;;;;;0.68;0.68;;;19.20;49.90;21.40;94252.00;;;;10474230;28;45329;-63
2022/07/31 03:34:24;;;;;;;0.88;0.60;;;19.20;50.20;21.40;94253.00;;;;10474566;28;45434;-63
2022/07/31 03:39:46;;;;;;;0.70;0.60;;;19.20;50.20;21.40;94254.00;;;;10473791;28;45188;-63
2022/07/31 03:45:08;;;;;;;0.63;0.52;;;19.20;50.10;21.40;94261.00;;;;10473080;28;45292;-63
2022/07/31 03:50:29;;;;;;;0.93;0.60;;;19.20;50.40;21.40;94250.00;;;;10474336;28;45214;-63
2022/07/31 03:55:53;;;;;;;0.70;0.55;;;19.20;50.00;21.40;94260.00;;;;10472379;28;45372;-63
2022/07/31 04:01:16;;;;;;;0.50;0.50;;;19.20;49.90;21.40;94243.00;;;;10473028;28;45273;-63
2022/07/31 04:06:36;;;;;;;0.70;0.70;;;19.20;50.70;21.40;94255.00;;;;10472655;28;45250;-63
2022/07/31 04:11:58;;;;;;;1.00;0.65;;;19.20;49.90;21.40;94243.00;;;;10473607;28;45422;-63
2022/07/31 04:17:19;;;;;;;0.77;0.63;;;19.20;49.90;21.40;94253.00;;;;10472561;28;45185;-63
2022/07/31 04:22:40;;;;;;;1.00;0.57;;;19.20;49.70;21.40;94253.00;;;;10472755;28;45141;-63
2022/07/31 04:28:01;;;;;;;0.65;0.57;;;19.20;50.10;21.30;94249.00;;;;10472639;28;45247;-63
2022/07/31 04:33:22;;;;;;;1.20;0.60;;;19.20;50.00;21.30;94264.00;;;;10468873;28;45239;-63
2022/07/31 04:38:43;;;;;;;2.03;0.70;;;19.20;49.70;21.30;94263.00;;;;10469482;28;45753;-63
2022/07/31 04:44:05;;;;;;;0.85;0.70;;;19.20;49.60;21.30;94261.00;;;;10471603;28;45200;-63
2022/07/31 04:49:26;;;;;;;0.82;0.60;;;19.20;49.70;21.30;94267.00;;;;10471102;28;45214;-63
2022/07/31 04:54:46;;;;;;;1.08;0.70;;;19.20;49.60;21.30;94269.00;;;;10470971;28;45272;-63
2022/07/31 05:00:10;;;;;;;1.23;0.60;;;19.20;49.80;21.30;94252.00;;;;10471622;28;45350;-63
2022/07/31 05:05:30;;;;;;;0.90;0.70;;;19.20;49.90;21.30;94259.00;;;;10470814;28;45192;-63
2022/07/31 05:16:32;;;;;;;0.70;0.70;;;19.10;50.00;21.30;94266.00;;;;10475525;28;45439;-63
2022/07/31 05:21:53;;;;;;;1.38;0.50;;;19.20;49.90;21.30;94222.00;;;;10476552;28;45269;-63
2022/07/31 05:27:14;;;;;;;3.03;0.68;;;19.20;50.20;21.30;94252.00;;;;10482378;27;45266;-63
2022/07/31 05:32:35;;;;;;;1.08;0.70;;;19.20;50.10;21.30;94246.00;;;;10470038;28;45258;-63
2022/07/31 05:37:56;;;;;;;1.15;0.70;;;19.20;50.40;21.40;94251.00;;;;10469470;28;45320;-63
2022/07/31 05:43:17;;;;;;;1.42;0.60;;;19.20;50.60;21.40;94253.00;;;;10469986;28;45209;-63
2022/07/31 05:48:40;;;;;;;0.70;0.60;;;19.20;50.50;21.40;94252.00;;;;10469761;28;45172;-63
2022/07/31 05:54:00;;;;;;;0.60;0.60;;;19.20;50.40;21.40;94258.00;;;;10469780;28;45566;-63
2022/07/31 05:59:21;;;;;;;0.93;0.60;;;19.20;50.50;21.40;94261.00;;;;10469268;28;45171;-63
2022/07/31 06:04:43;;;;;;;1.77;0.70;;;19.20;50.70;21.40;94271.00;;;;10469020;28;45169;-63
2022/07/31 06:10:04;;;;;;;1.05;0.68;;;19.20;50.80;21.40;94260.00;;;;10470217;28;45133;-63
2022/07/31 06:15:26;;;;;;;1.95;0.88;;;19.20;50.80;21.40;94263.00;;;;10468925;28;45343;-63
2022/07/31 06:20:47;;;;;;;1.08;0.60;;;19.20;50.80;21.40;94265.00;;;;10481562;28;45213;-63
2022/07/31 06:26:08;;;;;;;1.15;0.80;;;19.20;50.90;21.40;94263.00;;;;10482459;28;45300;-63
2022/07/31 06:31:29;;;;;;;0.88;0.65;;;19.20;50.90;21.40;94270.00;;;;10469664;28;45165;-63
2022/07/31 06:36:51;;;;;;;1.00;0.70;;;19.20;51.00;21.40;94276.00;;;;10468457;28;45184;-63
2022/07/31 06:42:18;;;;;;;1.05;0.70;;;19.20;51.00;21.40;94272.00;;;;10474652;28;45227;-63
2022/07/31 06:47:38;;;;;;;0.70;0.55;;;19.20;51.00;21.40;94278.00;;;;10475808;28;45216;-63
2022/07/31 06:53:00;;;;;;;0.98;0.60;;;19.20;51.00;21.40;94279.00;;;;10476546;28;45200;-63
2022/07/31 06:58:21;;;;;;;1.13;0.70;;;19.20;51.00;21.40;94288.00;;;;10474776;28;45255;-63
2022/07/31 07:03:41;;;;;;;1.17;0.55;;;19.20;51.00;21.40;94283.00;;;;10474663;28;45278;-63
2022/07/31 07:09:03;;;;;;;0.82;0.63;;;19.20;51.00;21.40;94282.00;;;;10473900;28;45242;-63
2022/07/31 07:14:24;;;;;;;0.60;0.60;;;19.30;51.20;21.40;94286.00;;;;10472524;28;45288;-62
2022/07/31 07:19:44;;;;;;;0.70;0.60;;;19.20;51.10;21.40;94267.00;;;;10471628;28;45196;-63
2022/07/31 07:25:07;;;;;;;1.13;0.68;;;19.20;51.20;21.40;94271.00;;;;10474505;28;45300;-62
2022/07/31 07:30:29;;;;;;;0.80;0.60;;;19.20;51.30;21.40;94273.00;;;;10472059;28;45492;-63
2022/07/31 07:35:49;;;;;;;1.10;0.50;;;19.20;51.30;21.40;94275.00;;;;10471159;28;45496;-63
2022/07/31 07:41:11;;;;;;;0.70;0.60;;;19.30;51.40;21.40;94275.00;;;;10471565;28;45219;-62
2022/07/31 07:46:32;;;;;;;0.75;0.60;;;19.20;51.40;21.40;94272.00;;;;10470705;28;45497;-63
2022/07/31 07:51:52;;;;;;;1.00;0.52;;;19.20;51.40;21.40;94261.00;;;;10473196;28;45224;-66
2022/07/31 07:57:16;;;;;;;1.25;0.68;;;19.20;51.50;21.50;94255.00;;;;10472688;28;45196;-68
2022/07/31 08:02:38;;;;;;;1.27;0.70;;;19.30;51.60;21.50;94262.00;;;;10487484;28;45153;-63
2022/07/31 08:07:58;;;;;;;1.83;0.57;;;19.30;51.50;21.60;94266.00;;;;10473561;28;45182;-63
2022/07/31 08:13:20;;;;;;;1.90;0.80;;;19.40;52.20;21.60;94260.00;;;;10472872;28;45490;-62
2022/07/31 08:18:41;;;;;;;1.98;0.80;;;19.40;52.70;21.60;94262.00;;;;10486099;28;45159;-64
2022/07/31 08:24:02;;;;;;;2.22;0.80;;;19.40;52.80;21.60;94246.00;;;;10472999;28;45328;-63
2022/07/31 08:29:24;;;;;;;3.42;0.90;;;19.50;53.00;21.60;94257.00;;;;10472616;28;45505;-63
2022/07/31 08:34:45;;;;;;;4.05;0.90;;;19.50;53.30;21.60;94255.00;;;;10471618;28;45208;-62
2022/07/31 08:40:07;;;;;;;3.17;1.10;;;19.50;53.10;21.60;94255.00;;;;10472751;28;45632;-64
2022/07/31 08:45:29;;;;;;;4.20;1.02;;;19.40;53.00;21.60;94242.00;;;;10471848;28;45468;-63
2022/07/31 08:50:50;;;;;;;4.07;0.90;;;19.40;52.90;21.60;94232.00;;;;10471855;28;45508;-63
2022/07/31 08:56:12;;;;;;;10.10;1.45;;;19.40;52.90;21.60;94249.00;;;;10470593;28;45004;-63
2022/07/31 09:01:36;;;;;;;4.15;0.88;;;19.40;52.90;21.60;94239.00;;;;10478382;27;45147;-66
2022/07/31 09:06:59;;;;;;;2.22;0.85;;;19.40;52.90;21.60;94242.00;;;;10462487;28;45414;-66
2022/07/31 09:12:28;;;;;;;2.60;1.08;;;19.40;52.90;21.60;94251.00;;;;10471712;28;45220;-63
2022/07/31 09:17:51;;;;;;;1.92;1.23;;;19.40;52.90;21.60;94261.00;;;;10484464;28;45339;-63
2022/07/31 09:23:12;;;;;;;4.15;0.98;;;19.40;52.80;21.60;94254.00;;;;10471391;28;45397;-65
2022/07/31 09:28:34;;;;;;;3.00;0.90;;;19.40;52.70;21.60;94248.00;;;;10470266;28;45233;-63
2022/07/31 09:33:56;;;;;;;3.55;1.00;;;19.40;52.70;21.60;94246.00;;;;10470587;28;45240;-63
2022/07/31 09:39:17;;;;;;;1.95;1.00;;;19.40;52.70;21.60;94255.00;;;;10478642;28;45171;-65
2022/07/31 09:44:42;;;;;;;1.92;0.80;;;19.40;52.70;21.60;94251.00;;;;10473276;28;45192;-62
2022/07/31 09:50:06;;;;;;;1.45;1.00;;;19.40;52.70;21.60;94245.00;;;;10470078;28;45175;-64
2022/07/31 09:55:27;;;;;;;1.63;0.80;;;19.40;52.60;21.60;94246.00;;;;10468209;28;45417;-65
2022/07/31 10:00:50;;;;;;;1.63;0.98;;;19.40;52.60;21.60;94236.00;;;;10470296;28;45243;-63
2022/07/31 10:06:14;;;;;;;1.45;0.80;;;19.50;52.70;21.60;94237.00;;;;10468712;28;45174;-65
2022/07/31 10:11:34;;;;;;;1.80;0.80;;;19.40;52.50;21.60;94236.00;;;;10472550;28;45312;-62
2022/07/31 10:16:59;;;;;;;1.00;0.73;;;19.40;52.40;21.60;94243.00;;;;10491182;28;45251;-65
2022/07/31 10:22:22;;;;;;;1.00;0.82;;;19.50;52.40;21.60;94242.00;;;;10498997;28;45163;-63
2022/07/31 10:27:43;;;;;;;2.25;0.90;;;19.50;52.40;21.60;94240.00;;;;10472412;28;45527;-62
2022/07/31 10:33:05;;;;;;;1.25;0.80;;;19.50;52.30;21.60;94216.00;;;;10483118;28;45251;-63
2022/07/31 10:38:31;;;;;;;1.00;0.60;;;19.50;52.30;21.70;94232.00;;;;10487026;28;45415;-62
2022/07/31 10:43:59;;;;;;;0.90;0.50;;;19.50;52.20;21.60;94227.00;;;;10470898;28;45306;-64
2022/07/31 10:49:38;;;;;;;1.30;0.70;;;19.50;52.20;21.60;94226.00;;;;10477038;28;45176;-64
2022/07/31 10:55:00;;;;;;;1.20;0.70;;;19.50;52.20;21.60;94221.00;;;;10474777;28;45477;-63
2022/07/31 11:00:23;;;;;;;0.85;0.60;;;19.50;52.20;21.70;94219.00;;;;10475722;28;45236;-63
2022/07/31 11:05:55;;;;;;;1.77;0.80;;;19.50;52.10;21.70;94227.00;;;;10475161;28;45213;-63
2022/07/31 11:11:20;;;;;;;0.93;0.70;;;19.50;52.20;21.60;94217.00;;;;10475243;28;45307;-64
2022/07/31 11:16:50;;;;;;;0.63;0.50;;;19.50;52.20;21.60;94215.00;;;;10481081;28;45288;-63
2022/07/31 11:22:12;;;;;;;0.95;0.70;;;19.50;52.40;21.70;94209.00;;;;10477627;28;45131;-63
2022/07/31 11:27:34;;;;;;;0.70;0.63;;;19.50;52.40;21.70;94211.00;;;;10461765;28;45273;-66
2022/07/31 11:32:55;;;;;;;1.17;0.70;;;19.50;52.30;21.70;94199.00;;;;10474774;28;45165;-66
2022/07/31 11:38:16;;;;;;;1.20;0.70;;;19.50;52.30;21.70;94195.00;;;;10475996;28;45255;-64
2022/07/31 11:43:43;;;;;;;2.15;0.77;;;19.50;52.20;21.70;94188.00;;;;10481730;28;45123;-62
2022/07/31 11:49:04;;;;;;;1.08;0.70;;;19.50;52.10;21.70;94171.00;;;;10474033;28;45307;-63
2022/07/31 11:54:25;;;;;;;0.70;0.68;;;19.60;52.10;21.70;94194.00;;;;10473529;28;45235;-64
2022/07/31 11:59:47;;;;;;;1.58;0.70;;;19.50;51.90;21.70;94172.00;;;;10473483;28;45157;-63
2022/07/31 12:05:11;;;;;;;1.02;0.60;;;19.50;52.10;21.70;94166.00;;;;10479957;28;45371;-62
2022/07/31 12:10:33;;;;;;;1.05;0.60;;;19.60;52.10;21.70;94184.00;;;;10480831;28;45400;-63
2022/07/31 12:15:57;;;;;;;1.70;0.70;;;19.60;52.00;21.80;94183.00;;;;10478646;28;45284;-63
2022/07/31 12:21:20;;;;;;;0.60;0.57;;;19.60;52.10;21.80;94176.00;;;;10480328;28;45132;-62
2022/07/31 12:26:49;;;;;;;1.00;0.70;;;19.60;52.00;21.80;94159.00;;;;10479156;28;45296;-63
2022/07/31 12:32:11;;;;;;;1.10;0.65;;;19.60;52.00;21.80;94161.00;;;;10479712;28;45063;-64
2022/07/31 12:37:43;;;;;;;0.70;0.60;;;19.60;52.00;21.80;94167.00;;;;10477185;28;45475;-64
2022/07/31 12:43:04;;;;;;;1.08;0.70;;;19.60;52.00;21.80;94166.00;;;;10489939;28;45281;-64
2022/07/31 12:48:26;;;;;;;1.08;0.68;;;19.70;52.00;21.80;94169.00;;;;10478769;28;45525;-64
2022/07/31 12:53:47;;;;;;;1.17;0.90;;;19.70;52.00;21.80;94155.00;;;;10478029;28;45284;-64
2022/07/31 12:59:09;;;;;;;1.70;0.70;;;19.60;52.00;21.80;94132.00;;;;10477704;28;45272;-64
2022/07/31 13:04:31;;;;;;;1.60;0.90;;;19.70;52.10;21.90;94139.00;;;;10477878;28;45152;-64
2022/07/31 13:09:52;;;;;;;0.75;0.60;;;19.70;52.10;21.90;94144.00;;;;10475794;28;45371;-64
2022/07/31 13:15:12;;;;;;;0.80;0.70;;;19.70;52.10;21.90;94134.00;;;;10476695;28;45136;-67
2022/07/31 13:20:34;;;;;;;1.45;0.63;;;19.70;52.10;21.90;94118.00;;;;10475978;28;45227;-64
2022/07/31 13:25:55;;;;;;;0.93;0.80;;;19.70;52.10;21.90;94125.00;;;;10470155;28;45234;-64
2022/07/31 13:31:16;;;;;;;1.20;0.70;;;19.80;52.00;21.90;94127.00;;;;10470512;28;45178;-65
2022/07/31 13:36:37;;;;;;;1.50;0.57;;;19.70;52.20;21.90;94128.00;;;;10470043;28;45176;-65
2022/07/31 13:41:58;;;;;;;1.05;0.60;;;19.80;52.30;21.90;94119.00;;;;10478022;28;45139;-63
2022/07/31 13:47:18;;;;;;;1.95;0.70;;;19.80;52.30;22.00;94109.00;;;;10474693;28;45215;-65
2022/07/31 13:52:40;;;;;;;1.27;0.80;;;19.80;52.30;22.00;94111.00;;;;10470151;28;45250;-65
2022/07/31 13:58:01;;;;;;;2.67;0.90;;;19.80;52.50;22.00;94112.00;;;;10467837;28;45323;-64
2022/07/31 14:03:22;;;;;;;2.55;0.90;;;19.80;52.30;22.00;94098.00;;;;10457580;28;45145;-64
2022/07/31 14:08:44;;;;;;;2.53;1.10;;;19.90;52.40;22.00;94096.00;;;;10469790;28;45166;-65
2022/07/31 14:14:05;;;;;;;2.92;1.00;;;19.80;52.30;22.10;94098.00;;;;10468323;28;45362;-65
2022/07/31 14:19:26;;;;;;;1.88;0.80;;;19.90;52.40;22.10;94082.00;;;;10482965;28;45279;-65
2022/07/31 14:24:47;;;;;;;1.55;0.85;;;19.90;52.60;22.10;94067.00;;;;10468227;28;45225;-65
2022/07/31 14:30:10;;;;;;;2.00;0.88;;;19.90;52.50;22.10;94070.00;;;;10469295;28;45219;-64
2022/07/31 14:35:32;;;;;;;2.05;0.70;;;19.90;52.40;22.10;94069.00;;;;10467413;28;45214;-64
2022/07/31 14:40:53;;;;;;;1.90;0.80;;;20.00;52.20;22.20;94069.00;;;;10467995;28;45238;-64
2022/07/31 14:46:14;;;;;;;2.20;0.60;;;20.00;52.10;22.20;94078.00;;;;10471430;28;45281;-64
2022/07/31 14:51:34;;;;;;;3.13;0.98;;;20.10;52.60;22.30;94066.00;;;;10468288;28;45262;-64
2022/07/31 14:56:57;;;;;;;3.10;0.63;;;20.20;52.70;22.30;94075.00;;;;10466269;28;45255;-63
2022/07/31 15:02:18;;;;;;;2.22;0.70;;;20.20;52.80;22.40;94082.00;;;;10472664;28;45208;-61
2022/07/31 15:07:39;;;;;;;1.88;0.80;;;20.20;52.80;22.40;94082.00;;;;10471808;28;45316;-62
2022/07/31 15:13:01;;;;;;;1.77;0.80;;;20.20;52.80;22.40;94082.00;;;;10471935;28;45279;-62
2022/07/31 15:18:21;;;;;;;2.10;0.70;;;20.30;52.80;22.40;94073.00;;;;10472443;28;45236;-64
2022/07/31 15:23:42;;;;;;;1.50;0.60;;;20.30;52.70;22.40;94059.00;;;;10490041;28;45214;-64
2022/07/31 15:29:04;;;;;;;0.70;0.45;;;20.30;52.80;22.50;94061.00;;;;10469231;28;45492;-64
2022/07/31 15:34:25;;;;;;;1.42;0.75;;;20.30;52.70;22.50;94061.00;;;;10496833;28;45288;-63
2022/07/31 15:39:45;;;;;;;1.95;0.60;;;20.30;53.30;22.50;94067.00;;;;10473301;28;45201;-63
2022/07/31 15:45:11;;;;;;;2.90;0.90;;;20.30;52.80;22.40;94065.00;;;;10474146;28;45207;-63
2022/07/31 15:50:32;;;;;;;1.05;0.73;;;20.30;52.60;22.40;94039.00;;;;10473648;28;45299;-63
2022/07/31 15:55:52;;;;;;;2.40;0.60;;;20.30;52.60;22.40;94049.00;;;;10469302;28;45225;-63
2022/07/31 16:01:14;;;;;;;3.05;0.68;;;20.30;52.60;22.40;94052.00;;;;10470625;28;45107;-63
2022/07/31 16:06:35;;;;;;;2.00;0.75;;;20.30;52.70;22.40;94040.00;;;;10471967;28;45266;-63
2022/07/31 16:11:55;;;;;;;2.28;0.80;;;20.30;52.60;22.40;94037.00;;;;10469340;28;45222;-63
2022/07/31 16:17:17;;;;;;;1.08;0.60;;;20.30;52.60;22.40;94039.00;;;;10481677;28;45307;-63
2022/07/31 16:22:40;;;;;;;1.95;0.70;;;20.30;52.50;22.50;94041.00;;;;10489316;28;45231;-63
2022/07/31 16:28:00;;;;;;;1.63;0.80;;;20.40;52.60;22.40;94033.00;;;;10472337;28;45200;-63
2022/07/31 16:33:22;;;;;;;1.60;0.77;;;20.30;52.60;22.40;94026.00;;;;10471943;28;45405;-62
2022/07/31 16:38:42;;;;;;;1.42;0.63;;;20.30;52.60;22.40;94029.00;;;;10472289;28;45216;-63
2022/07/31 16:44:04;;;;;;;2.20;0.80;;;20.30;52.50;22.50;94027.00;;;;10471662;28;45175;-62
2022/07/31 16:49:26;;;;;;;1.15;0.65;;;20.30;52.40;22.40;94033.00;;;;10472225;28;45213;-63
2022/07/31 16:54:47;;;;;;;1.92;0.60;;;20.30;52.30;22.40;94025.00;;;;10471732;28;45216;-63
2022/07/31 17:00:10;;;;;;;1.08;0.70;;;20.30;52.30;22.50;94017.00;;;;10471019;28;45159;-62
2022/07/31 17:05:32;;;;;;;1.15;0.65;;;20.30;52.50;22.50;94032.00;;;;10471243;28;45144;-63
2022/07/31 17:10:52;;;;;;;1.63;0.70;;;20.30;52.30;22.50;94032.00;;;;10471412;28;45150;-62
2022/07/31 17:16:13;;;;;;;0.85;0.60;;;20.30;52.30;22.50;94020.00;;;;10460587;28;45228;-63
2022/07/31 17:21:34;;;;;;;0.95;0.55;;;20.40;52.20;22.50;94022.00;;;;10491294;27;45134;-63
2022/07/31 17:26:55;;;;;;;1.55;0.70;;;20.40;52.30;22.40;94017.00;;;;10474165;28;45931;-62
2022/07/31 17:32:16;;;;;;;1.58;0.60;;;20.40;52.40;22.40;94035.00;;;;10470179;28;45266;-63
2022/07/31 17:37:38;;;;;;;1.25;0.70;;;20.30;52.50;22.40;94041.00;;;;10474318;28;45242;-64
2022/07/31 17:42:59;;;;;;;1.27;0.50;;;20.30;52.40;22.40;94041.00;;;;10476266;28;45566;-63
2022/07/31 17:48:21;;;;;;;0.77;0.50;;;20.30;52.40;22.40;94033.00;;;;10475403;28;45172;-63
2022/07/31 17:53:42;;;;;;;0.98;0.60;;;20.20;52.40;22.40;94046.00;;;;10475778;28;45523;-63
2022/07/31 17:59:04;;;;;;;1.52;0.60;;;20.30;52.50;22.30;94040.00;;;;10474062;28;45472;-62
2022/07/31 18:04:25;;;;;;;1.13;0.63;;;20.20;52.50;22.30;94035.00;;;;10474527;28;45229;-64
2022/07/31 18:09:47;;;;;;;1.27;0.60;;;20.20;52.60;22.30;94056.00;;;;10463024;28;45237;-63
2022/07/31 18:15:10;;;;;;;0.95;0.57;;;20.10;52.60;22.30;94048.00;;;;10473567;28;45414;-63
2022/07/31 18:20:31;;;;;;;1.58;0.60;;;20.20;52.70;22.30;94042.00;;;;10490100;28;45193;-62
2022/07/31 18:25:53;;;;;;;1.20;0.65;;;20.10;52.70;22.20;94043.00;;;;10486242;28;45303;-63
2022/07/31 18:31:14;;;;;;;1.02;0.43;;;20.10;52.80;22.20;94051.00;;;;10474472;28;45145;-63
2022/07/31 18:36:35;;;;;;;1.92;0.50;;;20.00;52.70;22.20;94057.00;;;;10470670;28;45727;-64
2022/07/31 18:41:57;;;;;;;1.98;0.60;;;20.00;52.90;22.20;94067.00;;;;10479049;28;45441;-64
2022/07/31 18:47:17;;;;;;;0.70;0.50;;;20.00;52.90;22.20;94050.00;;;;10480444;28;45144;-63
2022/07/31 18:52:38;;;;;;;0.68;0.43;;;20.00;52.80;22.20;94063.00;;;;10481286;28;45554;-63
2022/07/31 18:58:00;;;;;;;0.70;0.50;;;20.00;52.70;22.20;94070.00;;;;10474944;28;45311;-63
2022/07/31 19:03:22;;;;;;;0.90;0.50;;;20.00;52.70;22.20;94053.00;;;;10479326;28;45375;-63
2022/07/31 19:08:42;;;;;;;1.02;0.57;;;20.00;52.60;22.10;94071.00;;;;10478997;28;45208;-63
2022/07/31 19:14:04;;;;;;;1.10;0.60;;;20.00;52.50;22.10;94061.00;;;;10476384;28;45192;-63
2022/07/31 19:19:25;;;;;;;0.40;0.40;;;20.00;52.40;22.10;94071.00;;;;10485640;28;45181;-63
2022/07/31 19:24:46;;;;;;;0.47;0.47;;;19.90;52.40;22.10;94070.00;;;;10514936;28;45236;-63
2022/07/31 19:30:11;;;;;;;0.90;0.45;;;19.90;52.30;22.10;94075.00;;;;10487133;28;45209;-63
2022/07/31 19:35:33;;;;;;;0.80;0.57;;;19.90;52.30;22.10;94070.00;;;;10481093;28;45325;-64
2022/07/31 19:40:54;;;;;;;0.73;0.40;;;19.90;52.30;22.10;94085.00;;;;10481823;28;45289;-63
2022/07/31 19:46:15;;;;;;;0.80;0.38;;;19.90;52.30;22.10;94079.00;;;;10477926;28;45224;-63
2022/07/31 19:51:36;;;;;;;0.68;0.40;;;19.90;52.30;22.10;94089.00;;;;10473866;28;45207;-63
2022/07/31 19:56:57;;;;;;;0.70;0.45;;;19.90;52.20;22.10;94091.00;;;;10461910;28;45251;-63
2022/07/31 20:02:19;;;;;;;1.27;0.70;;;19.90;52.20;22.10;94085.00;;;;10473344;28;45259;-63
2022/07/31 20:07:40;;;;;;;0.52;0.50;;;19.90;52.10;22.10;94100.00;;;;10473306;28;45226;-63
2022/07/31 20:13:00;;;;;;;0.70;0.70;;;19.80;52.00;22.10;94103.00;;;;10460948;28;45266;-64
2022/07/31 20:18:26;;;;;;;0.90;0.60;;;19.90;52.00;22.00;94090.00;;;;10486417;28;45208;-63
2022/07/31 20:23:46;;;;;;;1.63;0.50;;;19.80;52.00;22.00;94103.00;;;;10487862;28;45123;-63
2022/07/31 20:29:07;;;;;;;1.02;0.63;;;19.80;52.00;22.00;94110.00;;;;10460030;28;45191;-63
2022/07/31 20:34:29;;;;;;;0.60;0.50;;;19.80;51.90;22.00;94095.00;;;;10472166;28;45358;-63
2022/07/31 20:39:49;;;;;;;1.13;0.50;;;19.80;52.10;22.00;94100.00;;;;10471856;28;45178;-63
2022/07/31 20:45:11;;;;;;;0.80;0.60;;;19.80;52.30;22.00;94106.00;;;;10472063;28;45246;-63
2022/07/31 20:50:33;;;;;;;0.60;0.60;;;19.80;52.40;22.00;94101.00;;;;10472138;28;45261;-63
2022/07/31 20:55:53;;;;;;;1.25;0.40;;;19.80;52.60;22.00;94103.00;;;;10471243;28;45147;-63
2022/07/31 21:01:14;;;;;;;0.65;0.50;;;19.80;52.60;22.00;94088.00;;;;10470211;28;45159;-63
2022/07/31 21:06:37;;;;;;;0.63;0.40;;;19.80;52.70;22.00;94096.00;;;;10458620;28;45170;-63
2022/07/31 21:11:58;;;;;;;0.80;0.60;;;19.80;52.60;22.00;94091.00;;;;10470804;28;45212;-63
2022/07/31 21:17:18;;;;;;;0.60;0.60;;;19.80;52.70;21.90;94092.00;;;;10471981;28;45172;-63
2022/07/31 21:22:41;;;;;;;0.50;0.50;;;19.80;52.60;21.90;94100.00;;;;10479285;28;45248;-63
2022/07/31 21:28:02;;;;;;;0.88;0.70;;;19.80;52.60;21.90;94090.00;;;;10462151;28;45269;-63
2022/07/31 21:33:23;;;;;;;0.77;0.60;;;19.80;53.00;21.90;94085.00;;;;10470190;28;45191;-63
2022/07/31 21:38:46;;;;;;;0.77;0.70;;;19.70;53.10;21.90;94107.00;;;;10471071;28;45214;-63
2022/07/31 21:44:09;;;;;;;0.60;0.57;;;19.70;53.10;21.90;94106.00;;;;10470076;28;45265;-63
2022/07/31 21:49:34;;;;;;;0.50;0.50;;;19.70;53.10;21.90;94104.00;;;;10469883;28;45271;-63
2022/07/31 21:54:56;;;;;;;1.17;0.50;;;19.70;53.20;21.90;94099.00;;;;10470002;28;45580;-63
2022/07/31 22:00:17;;;;;;;0.82;0.50;;;19.70;53.30;21.90;94110.00;;;;10469825;28;45150;-63
2022/07/31 22:11:17;;;;;;;0.75;0.55;;;19.70;53.30;21.90;94115.00;;;;10478115;28;45168;-63
2022/07/31 22:16:38;;;;;;;0.40;0.40;;;19.70;53.30;21.90;94107.00;;;;10483362;28;45216;-63
2022/07/31 22:22:01;;;;;;;0.60;0.40;;;19.70;53.30;21.90;94114.00;;;;10490701;28;45569;-63
2022/07/31 22:33:03;;;;;;;0.85;0.50;;;19.70;53.30;21.80;94102.00;;;;10482594;28;45299;-63
2022/07/31 22:38:24;;;;;;;1.00;0.70;;;19.70;53.30;21.80;94116.00;;;;10482361;28;45250;-64
2022/07/31 22:43:46;;;;;;;0.55;0.50;;;19.60;53.30;21.80;94111.00;;;;10482133;28;45231;-63
2022/07/31 22:49:08;;;;;;;0.60;0.47;;;19.70;53.30;21.80;94114.00;;;;10482680;28;45113;-63
2022/07/31 22:54:29;;;;;;;0.80;0.47;;;19.70;53.30;21.80;94121.00;;;;10481780;28;45302;-63
2022/07/31 22:59:50;;;;;;;0.68;0.52;;;19.70;53.40;21.80;94120.00;;;;10481330;28;45318;-63
2022/07/31 23:05:11;;;;;;;0.40;0.40;;;19.60;53.30;21.80;94111.00;;;;10480958;28;45377;-63
2022/07/31 23:10:32;;;;;;;0.60;0.50;;;19.70;53.40;21.80;94114.00;;;;10481675;28;45141;-63
2022/07/31 23:15:54;;;;;;;0.60;0.47;;;19.60;53.30;21.80;94121.00;;;;10480808;28;45188;-63
2022/07/31 23:21:15;;;;;;;0.50;0.50;;;19.70;53.30;21.80;94108.00;;;;10466223;28;45213;-64
2022/07/31 23:26:36;;;;;;;0.52;0.47;;;19.60;53.30;21.80;94124.00;;;;10488006;28;45218;-63
2022/07/31 23:31:58;;;;;;;0.93;0.40;;;19.60;53.30;21.80;94122.00;;;;10474213;28;45159;-63
2022/07/31 23:37:19;;;;;;;0.50;0.40;;;19.60;53.30;21.80;94122.00;;;;10474075;28;45299;-63
2022/07/31 23:42:39;;;;;;;1.05;0.57;;;19.60;53.30;21.80;94127.00;;;;10474272;28;45232;-63
2022/07/31 23:48:01;;;;;;;0.85;0.50;;;19.60;53.20;21.80;94121.00;;;;10473496;28;45565;-63
2022/07/31 23:53:22;;;;;;;0.57;0.45;;;19.60;53.20;21.80;94126.00;;;;10473388;28;45586;-63